Time;durP1;ratioP1;P1;durP2;ratioP2;P2;SDS_P1;SDS_P2;PMS_P1;PMS_P2;Temp;Humidity;BMP_temperature;BMP_pressure;BME280_temperature;BME280_humidity;BME280_pressure;Samples;Min_cycle;Max_cycle;Signal;HPM_P1;HPM_P2
2021/09/15 00:00:30;;;;;;;9.85;6.22;;;17.70;95.90;;;;;;5032526;28;20026;-64
2021/09/15 00:02:56;;;;;;;9.23;6.07;;;17.80;96.00;;;;;;5034518;28;20024;-64
2021/09/15 00:05:21;;;;;;;9.38;6.25;;;17.70;96.00;;;;;;5031470;28;20535;-65
2021/09/15 00:07:46;;;;;;;7.45;6.00;;;17.80;96.00;;;;;;5033347;28;20033;-65
2021/09/15 00:10:12;;;;;;;10.23;7.10;;;17.80;96.20;;;;;;5026508;28;20105;-65
2021/09/15 00:12:38;;;;;;;9.00;6.50;;;17.70;96.00;;;;;;5070245;28;20090;-65
2021/09/15 00:15:04;;;;;;;8.98;6.47;;;17.80;96.00;;;;;;5055444;28;20036;-65
2021/09/15 00:17:30;;;;;;;9.85;7.10;;;17.80;96.10;;;;;;5055028;28;20427;-65
2021/09/15 00:19:55;;;;;;;9.10;6.68;;;17.70;96.10;;;;;;5051655;28;20029;-65
2021/09/15 00:22:20;;;;;;;8.68;6.25;;;17.70;96.20;;;;;;5035765;28;20453;-65
2021/09/15 00:24:46;;;;;;;9.43;6.45;;;17.70;96.10;;;;;;5036457;28;20064;-65
2021/09/15 00:27:11;;;;;;;11.35;6.45;;;17.70;96.10;;;;;;5048835;28;20048;-65
2021/09/15 00:29:38;;;;;;;8.77;6.03;;;17.80;96.10;;;;;;5033514;28;20486;-65
2021/09/15 00:32:05;;;;;;;9.35;6.75;;;17.70;96.20;;;;;;5029851;28;20043;-65
2021/09/15 00:34:30;;;;;;;8.40;6.90;;;17.70;96.20;;;;;;5032300;28;20502;-64
2021/09/15 00:36:57;;;;;;;9.48;6.60;;;17.70;96.30;;;;;;5029812;28;20067;-65
2021/09/15 00:39:22;;;;;;;8.68;6.75;;;17.70;96.30;;;;;;5032162;28;20025;-65
2021/09/15 00:41:48;;;;;;;10.38;7.15;;;17.70;96.30;;;;;;5042538;28;20389;-64
2021/09/15 00:44:14;;;;;;;10.63;7.72;;;17.70;96.30;;;;;;5052336;28;20025;-65
2021/09/15 00:46:40;;;;;;;11.23;7.28;;;17.60;96.30;;;;;;5036716;28;20032;-64
2021/09/15 00:49:07;;;;;;;9.40;7.00;;;17.70;96.30;;;;;;5050553;28;20075;-65
2021/09/15 00:51:35;;;;;;;10.52;7.07;;;17.60;96.40;;;;;;5040492;28;20647;-65
2021/09/15 00:54:00;;;;;;;10.02;7.35;;;17.60;96.40;;;;;;5045909;28;20029;-64
2021/09/15 00:56:26;;;;;;;9.90;7.20;;;17.60;96.50;;;;;;5040450;28;20053;-65
2021/09/15 00:58:52;;;;;;;11.48;7.55;;;17.50;96.50;;;;;;5031067;28;20022;-65
2021/09/15 01:01:17;;;;;;;9.82;7.20;;;17.50;96.50;;;;;;5037723;28;20036;-65
2021/09/15 01:03:43;;;;;;;9.68;7.38;;;17.50;96.60;;;;;;5046902;28;20029;-64
2021/09/15 01:06:10;;;;;;;10.48;7.45;;;17.50;96.60;;;;;;5036823;28;20425;-65
2021/09/15 01:08:37;;;;;;;9.43;7.45;;;17.50;96.60;;;;;;5045438;28;20037;-65
2021/09/15 01:11:02;;;;;;;8.07;7.03;;;17.40;96.60;;;;;;5013144;28;20052;-65
2021/09/15 01:13:30;;;;;;;9.80;6.70;;;17.50;96.80;;;;;;5026802;28;20028;-65
2021/09/15 01:15:56;;;;;;;11.63;6.90;;;17.50;96.90;;;;;;5047720;28;20021;-64
2021/09/15 01:18:21;;;;;;;13.57;8.40;;;17.50;96.90;;;;;;5031278;28;20478;-65
2021/09/15 01:20:47;;;;;;;10.02;7.60;;;17.50;96.80;;;;;;5027186;28;20037;-65
2021/09/15 01:23:12;;;;;;;9.63;7.00;;;17.50;96.90;;;;;;5042736;28;20029;-65
2021/09/15 01:25:39;;;;;;;9.65;7.80;;;17.50;96.90;;;;;;5042790;28;20489;-64
2021/09/15 01:28:04;;;;;;;11.32;7.95;;;17.50;96.90;;;;;;5043838;28;20482;-65
2021/09/15 01:30:30;;;;;;;10.23;8.13;;;17.50;97.00;;;;;;5030313;28;20083;-65
2021/09/15 01:32:56;;;;;;;9.65;7.10;;;17.50;97.00;;;;;;5030879;28;20079;-64
2021/09/15 01:35:22;;;;;;;10.02;7.40;;;17.50;97.10;;;;;;5030732;28;20075;-65
2021/09/15 01:37:47;;;;;;;8.60;7.55;;;17.50;97.00;;;;;;5030930;28;20029;-65
2021/09/15 01:40:13;;;;;;;10.02;7.15;;;17.50;97.00;;;;;;5032511;28;20603;-64
2021/09/15 01:42:39;;;;;;;9.95;7.45;;;17.50;97.10;;;;;;5031429;28;20045;-64
2021/09/15 01:45:10;;;;;;;10.43;7.80;;;17.50;97.00;;;;;;5037643;28;20108;-64
2021/09/15 01:47:35;;;;;;;11.15;7.72;;;17.50;97.00;;;;;;5031026;28;20022;-65
2021/09/15 01:50:01;;;;;;;9.45;7.45;;;17.50;97.20;;;;;;5037172;28;20025;-65
2021/09/15 01:52:27;;;;;;;9.85;7.90;;;17.50;97.00;;;;;;5055526;28;20032;-65
2021/09/15 01:54:52;;;;;;;11.80;8.43;;;17.50;97.00;;;;;;5042152;28;20047;-65
2021/09/15 01:57:18;;;;;;;17.02;9.90;;;17.50;97.00;;;;;;5055260;28;20020;-65
2021/09/15 01:59:43;;;;;;;11.07;8.43;;;17.40;97.00;;;;;;5037086;28;20394;-65
2021/09/15 02:02:11;;;;;;;10.90;8.30;;;17.40;97.00;;;;;;5037714;28;20322;-66
2021/09/15 02:04:38;;;;;;;11.32;8.50;;;17.40;97.10;;;;;;5034569;28;20517;-66
2021/09/15 02:07:03;;;;;;;10.98;8.43;;;17.40;97.10;;;;;;5032589;28;20104;-65
2021/09/15 02:09:29;;;;;;;13.60;9.20;;;17.40;97.20;;;;;;5034403;28;20114;-65
2021/09/15 02:11:54;;;;;;;10.23;8.73;;;17.30;97.20;;;;;;5034385;28;20018;-66
2021/09/15 02:14:20;;;;;;;14.73;8.32;;;17.40;97.20;;;;;;5035370;28;20025;-66
2021/09/15 02:16:46;;;;;;;10.75;8.68;;;17.30;97.20;;;;;;5048862;28;20405;-66
2021/09/15 02:19:12;;;;;;;12.38;8.88;;;17.30;97.20;;;;;;5034038;28;20021;-65
2021/09/15 02:21:38;;;;;;;11.25;8.80;;;17.30;97.30;;;;;;5034336;28;20025;-65
2021/09/15 02:24:03;;;;;;;11.68;9.57;;;17.30;97.30;;;;;;5034331;28;20029;-66
2021/09/15 02:26:31;;;;;;;11.98;8.98;;;17.30;97.30;;;;;;5033909;28;20421;-66
2021/09/15 02:28:57;;;;;;;11.05;8.50;;;17.30;97.40;;;;;;5035044;28;20068;-65
2021/09/15 02:31:23;;;;;;;11.45;8.27;;;17.30;97.40;;;;;;5033154;28;20032;-66
2021/09/15 02:33:48;;;;;;;12.20;8.82;;;17.30;97.50;;;;;;5033423;28;20045;-63
2021/09/15 02:36:14;;;;;;;11.65;9.15;;;17.30;97.40;;;;;;5040264;28;20029;-66
2021/09/15 02:38:40;;;;;;;11.57;8.32;;;17.30;97.50;;;;;;5040709;28;20040;-65
2021/09/15 02:41:06;;;;;;;12.05;8.95;;;17.30;97.50;;;;;;5044470;28;20537;-66
2021/09/15 02:43:31;;;;;;;11.80;9.15;;;17.30;97.50;;;;;;5048234;28;20033;-66
2021/09/15 02:45:57;;;;;;;13.73;8.48;;;17.30;97.60;;;;;;5036440;28;20025;-65
2021/09/15 02:48:22;;;;;;;12.70;8.77;;;17.30;97.60;;;;;;5030191;28;20034;-65
2021/09/15 02:50:48;;;;;;;13.30;9.60;;;17.20;97.60;;;;;;5032521;28;20104;-65
2021/09/15 02:53:13;;;;;;;13.88;9.30;;;17.20;97.60;;;;;;5033556;28;20044;-66
2021/09/15 02:55:39;;;;;;;10.60;8.85;;;17.20;97.70;;;;;;5032315;28;20042;-65
2021/09/15 02:58:06;;;;;;;10.93;8.98;;;17.30;97.70;;;;;;5034217;28;20489;-66
2021/09/15 03:00:31;;;;;;;10.93;9.32;;;17.30;97.80;;;;;;5032800;28;20018;-66
2021/09/15 03:02:57;;;;;;;11.10;8.55;;;17.30;97.80;;;;;;5043884;28;20033;-66
2021/09/15 03:05:22;;;;;;;12.80;9.40;;;17.20;97.70;;;;;;5032988;28;20112;-65
2021/09/15 03:07:48;;;;;;;10.23;8.77;;;17.30;97.80;;;;;;5034245;28;20041;-65
2021/09/15 03:10:13;;;;;;;11.68;9.45;;;17.30;97.80;;;;;;5041717;28;20021;-65
2021/09/15 03:12:39;;;;;;;10.32;8.68;;;17.30;97.70;;;;;;5054190;28;20049;-65
2021/09/15 03:15:05;;;;;;;12.05;9.27;;;17.30;97.80;;;;;;5038104;28;20017;-64
2021/09/15 03:17:31;;;;;;;13.20;9.25;;;17.30;97.80;;;;;;5033709;28;20033;-65
2021/09/15 03:19:56;;;;;;;12.45;9.30;;;17.30;97.90;;;;;;5039354;28;20016;-65
2021/09/15 03:22:22;;;;;;;11.40;9.00;;;17.30;97.80;;;;;;5039312;28;20398;-65
2021/09/15 03:24:47;;;;;;;11.85;9.50;;;17.30;97.80;;;;;;5032942;28;20037;-65
2021/09/15 03:27:13;;;;;;;11.30;10.10;;;17.30;98.10;;;;;;5033196;28;20036;-65
2021/09/15 03:29:38;;;;;;;12.23;9.23;;;17.30;97.80;;;;;;5031599;28;20014;-65
2021/09/15 03:32:04;;;;;;;13.50;10.57;;;17.30;97.90;;;;;;5033499;28;20036;-65
2021/09/15 03:34:29;;;;;;;13.32;9.95;;;17.40;97.90;;;;;;5033932;28;20043;-65
2021/09/15 03:36:55;;;;;;;13.10;10.05;;;17.30;97.80;;;;;;5032894;28;20394;-65
2021/09/15 03:39:20;;;;;;;14.88;10.38;;;17.40;97.90;;;;;;5032060;28;20026;-65
2021/09/15 03:41:46;;;;;;;12.63;10.65;;;17.30;97.90;;;;;;5033468;28;20037;-65
2021/09/15 03:44:12;;;;;;;11.52;9.02;;;17.30;97.90;;;;;;5030748;28;20494;-65
2021/09/15 03:46:38;;;;;;;12.85;10.00;;;17.30;97.90;;;;;;5026729;28;20116;-65
2021/09/15 03:49:03;;;;;;;11.70;9.95;;;17.30;97.90;;;;;;5031649;28;20030;-65
2021/09/15 03:51:29;;;;;;;15.50;10.13;;;17.30;97.90;;;;;;5033155;28;20030;-65
2021/09/15 03:53:54;;;;;;;14.02;10.15;;;17.40;98.00;;;;;;5031797;28;20417;-65
2021/09/15 03:56:20;;;;;;;13.73;10.50;;;17.30;97.90;;;;;;5031793;28;20493;-64
2021/09/15 03:58:46;;;;;;;11.88;10.00;;;17.30;97.90;;;;;;5036498;28;20032;-64
2021/09/15 04:01:14;;;;;;;12.93;10.15;;;17.30;98.00;;;;;;5045213;28;20025;-65
2021/09/15 04:03:39;;;;;;;12.35;9.50;;;17.30;98.00;;;;;;5049230;28;20536;-65
2021/09/15 04:06:05;;;;;;;14.20;10.10;;;17.30;98.00;;;;;;5031572;28;20125;-65
2021/09/15 04:08:30;;;;;;;11.70;9.70;;;17.30;98.00;;;;;;5033001;28;20017;-65
2021/09/15 04:10:56;;;;;;;11.23;9.45;;;17.30;98.10;;;;;;5031632;28;20102;-65
2021/09/15 04:13:21;;;;;;;13.60;10.77;;;17.30;98.10;;;;;;5032062;28;20034;-65
2021/09/15 04:15:47;;;;;;;12.55;10.60;;;17.30;98.10;;;;;;5044765;28;20501;-65
2021/09/15 04:18:13;;;;;;;13.65;10.43;;;17.30;98.10;;;;;;5052534;28;20033;-64
2021/09/15 04:20:39;;;;;;;13.48;10.07;;;17.30;98.10;;;;;;5035420;28;20038;-64
2021/09/15 04:23:12;;;;;;;12.20;9.93;;;17.20;98.10;;;;;;5032610;28;20037;-64
2021/09/15 04:31:18;;;;;;;12.23;10.32;;;17.20;98.20;;;;;;5048178;28;20033;-67
2021/09/15 04:33:44;;;;;;;12.77;10.45;;;17.30;98.20;;;;;;5047689;28;20128;-64
2021/09/15 04:36:09;;;;;;;12.13;9.80;;;17.30;98.20;;;;;;5048226;28;20028;-64
2021/09/15 04:38:36;;;;;;;13.05;10.32;;;17.30;98.20;;;;;;5036150;28;20116;-63
2021/09/15 04:41:02;;;;;;;13.02;10.55;;;17.30;98.20;;;;;;5031887;28;20025;-65
2021/09/15 04:43:27;;;;;;;12.05;10.05;;;17.20;98.30;;;;;;5030503;28;20120;-66
2021/09/15 04:45:53;;;;;;;14.32;11.38;;;17.30;98.30;;;;;;5036195;28;20052;-66
2021/09/15 04:48:18;;;;;;;10.88;9.60;;;17.30;98.30;;;;;;5040275;28;20118;-65
2021/09/15 04:50:44;;;;;;;14.13;10.85;;;17.30;98.30;;;;;;5030156;28;20026;-66
2021/09/15 04:53:09;;;;;;;10.80;9.65;;;17.30;98.30;;;;;;5031098;28;20091;-65
2021/09/15 04:55:35;;;;;;;12.82;10.02;;;17.30;98.40;;;;;;5036587;28;20124;-65
2021/09/15 04:58:00;;;;;;;13.30;10.73;;;17.40;98.40;;;;;;5031328;28;20034;-66
2021/09/15 05:00:27;;;;;;;11.45;9.98;;;17.40;98.40;;;;;;5031398;28;20421;-65
2021/09/15 05:02:53;;;;;;;15.38;10.80;;;17.40;98.40;;;;;;5052585;28;20021;-66
2021/09/15 05:05:18;;;;;;;14.77;11.60;;;17.40;98.40;;;;;;5056832;28;20074;-66
2021/09/15 05:07:44;;;;;;;14.73;10.38;;;17.40;98.40;;;;;;5040305;28;20040;-67
2021/09/15 05:10:09;;;;;;;15.45;11.05;;;17.40;98.40;;;;;;5039364;28;20025;-66
2021/09/15 05:12:35;;;;;;;12.55;10.30;;;17.40;98.40;;;;;;5040586;28;20030;-66
2021/09/15 05:15:00;;;;;;;12.98;10.80;;;17.40;98.50;;;;;;5049522;28;20033;-66
2021/09/15 05:17:26;;;;;;;13.43;11.25;;;17.50;98.50;;;;;;5036976;28;20030;-66
2021/09/15 05:19:51;;;;;;;16.92;11.63;;;17.50;98.40;;;;;;5025993;28;20029;-66
2021/09/15 05:22:17;;;;;;;14.00;10.27;;;17.50;98.40;;;;;;5027404;28;20040;-66
2021/09/15 05:24:42;;;;;;;14.93;10.43;;;17.50;98.40;;;;;;5021726;28;20025;-66
2021/09/15 05:27:08;;;;;;;16.30;12.05;;;17.50;98.40;;;;;;5047558;28;20477;-66
2021/09/15 05:29:34;;;;;;;14.40;11.63;;;17.60;98.40;;;;;;5034487;28;20032;-66
2021/09/15 05:31:59;;;;;;;17.65;11.90;;;17.50;98.40;;;;;;5037579;28;20052;-66
2021/09/15 05:34:24;;;;;;;13.73;10.82;;;17.50;98.40;;;;;;5031164;28;20041;-66
2021/09/15 05:36:50;;;;;;;13.38;11.05;;;17.50;98.40;;;;;;5030731;28;20029;-67
2021/09/15 05:39:15;;;;;;;15.88;10.60;;;17.60;98.50;;;;;;5030378;28;20029;-65
2021/09/15 05:41:41;;;;;;;17.45;11.10;;;17.60;98.50;;;;;;5011804;28;20018;-66
2021/09/15 05:44:06;;;;;;;15.25;11.20;;;17.60;98.50;;;;;;5018235;28;20022;-66
2021/09/15 05:46:32;;;;;;;15.23;10.93;;;17.60;98.50;;;;;;5029025;28;20025;-66
2021/09/15 05:48:57;;;;;;;14.32;11.57;;;17.60;98.50;;;;;;5032675;28;20032;-66
2021/09/15 05:51:23;;;;;;;19.00;11.82;;;17.70;98.40;;;;;;5036137;28;20033;-66
2021/09/15 05:53:48;;;;;;;13.85;10.40;;;17.70;98.40;;;;;;5047256;28;20116;-65
2021/09/15 05:56:14;;;;;;;18.40;11.52;;;17.70;98.40;;;;;;5031746;28;20037;-65
2021/09/15 05:58:39;;;;;;;15.38;11.07;;;17.70;98.30;;;;;;5026758;28;20034;-65
2021/09/15 06:01:06;;;;;;;16.55;11.07;;;17.80;98.40;;;;;;5026571;28;20025;-65
2021/09/15 06:03:32;;;;;;;12.93;10.73;;;17.80;98.30;;;;;;5036226;28;20025;-65
2021/09/15 06:05:57;;;;;;;16.13;11.05;;;17.80;98.40;;;;;;5036387;28;20036;-65
2021/09/15 06:08:23;;;;;;;16.52;11.35;;;17.90;98.30;;;;;;5035625;28;20033;-65
2021/09/15 06:10:49;;;;;;;14.07;10.82;;;17.90;98.30;;;;;;5030649;28;20439;-65
2021/09/15 06:13:14;;;;;;;14.20;11.13;;;18.00;98.40;;;;;;5047511;28;20083;-66
2021/09/15 06:15:40;;;;;;;11.55;9.95;;;18.00;98.30;;;;;;5042074;28;20063;-66
2021/09/15 06:18:05;;;;;;;14.82;12.10;;;18.00;98.30;;;;;;5035482;28;20464;-65
2021/09/15 06:20:31;;;;;;;15.45;11.07;;;18.10;98.20;;;;;;5054997;28;20021;-65
2021/09/15 06:22:56;;;;;;;13.70;11.18;;;18.10;98.10;;;;;;5033388;28;20473;-65
2021/09/15 06:25:24;;;;;;;12.38;10.63;;;18.10;98.20;;;;;;5038558;28;20024;-65
2021/09/15 06:27:51;;;;;;;13.25;10.60;;;18.20;98.20;;;;;;5033450;28;20036;-65
2021/09/15 06:30:17;;;;;;;11.55;10.35;;;18.30;98.20;;;;;;5049335;28;20025;-65
2021/09/15 06:32:42;;;;;;;14.75;10.90;;;18.30;98.20;;;;;;5040617;28;20086;-66
2021/09/15 06:35:10;;;;;;;15.98;10.63;;;18.30;98.10;;;;;;5027955;28;20083;-67
2021/09/15 06:37:36;;;;;;;15.35;11.02;;;18.40;98.10;;;;;;5030399;28;20025;-66
2021/09/15 06:40:01;;;;;;;14.88;10.52;;;18.50;98.10;;;;;;5031163;28;20128;-65
2021/09/15 06:42:27;;;;;;;14.13;11.40;;;18.50;98.10;;;;;;5032073;28;20025;-65
2021/09/15 06:44:55;;;;;;;13.48;11.35;;;18.60;98.20;;;;;;5031108;28;20087;-65
2021/09/15 06:47:21;;;;;;;13.88;11.35;;;18.60;98.20;;;;;;5041096;28;20099;-65
2021/09/15 06:49:46;;;;;;;14.43;11.63;;;18.70;98.50;;;;;;5036703;28;20026;-66
2021/09/15 06:52:12;;;;;;;16.88;11.43;;;18.80;98.00;;;;;;5037258;28;20500;-66
2021/09/15 06:54:37;;;;;;;17.83;11.73;;;18.90;98.00;;;;;;5033110;28;20529;-64
2021/09/15 06:57:03;;;;;;;14.32;10.95;;;18.90;97.90;;;;;;5044275;28;20425;-65
2021/09/15 06:59:28;;;;;;;15.57;11.63;;;18.90;97.80;;;;;;5039666;28;20099;-65
2021/09/15 07:01:54;;;;;;;16.77;10.55;;;19.00;98.00;;;;;;5041048;28;20040;-66
2021/09/15 07:04:19;;;;;;;14.73;10.50;;;19.00;98.00;;;;;;5038068;28;20096;-67
2021/09/15 07:06:45;;;;;;;16.33;11.25;;;19.00;97.80;;;;;;5031421;28;20617;-66
2021/09/15 07:09:11;;;;;;;13.23;10.73;;;19.10;97.80;;;;;;5032577;28;20466;-67
2021/09/15 07:11:36;;;;;;;17.02;11.60;;;19.10;97.80;;;;;;5041879;28;20040;-66
2021/09/15 07:14:05;;;;;;;11.98;9.77;;;19.10;97.80;;;;;;5043633;28;20069;-66
2021/09/15 07:16:31;;;;;;;16.25;11.48;;;19.20;97.80;;;;;;5032587;28;20032;-67
2021/09/15 07:18:57;;;;;;;12.85;10.15;;;19.20;97.80;;;;;;5042784;28;20397;-66
2021/09/15 07:21:23;;;;;;;13.27;10.38;;;19.20;97.50;;;;;;5027096;28;20018;-66
2021/09/15 07:23:48;;;;;;;11.25;10.10;;;19.30;97.70;;;;;;5033624;28;20025;-66
2021/09/15 07:26:14;;;;;;;14.82;11.05;;;19.30;97.40;;;;;;5031868;28;20123;-66
2021/09/15 07:28:39;;;;;;;12.27;10.00;;;19.40;97.40;;;;;;5031892;28;20030;-66
2021/09/15 07:31:05;;;;;;;14.25;10.88;;;19.50;97.40;;;;;;5033811;28;20025;-66
2021/09/15 07:33:33;;;;;;;12.73;10.35;;;19.50;97.30;;;;;;5036912;28;20041;-67
2021/09/15 07:36:03;;;;;;;13.13;10.68;;;19.60;97.20;;;;;;5034127;28;20021;-66
2021/09/15 07:38:29;;;;;;;16.08;10.23;;;19.60;97.10;;;;;;5032819;28;20033;-66
2021/09/15 07:40:56;;;;;;;13.73;10.20;;;19.60;97.00;;;;;;5029915;28;20033;-67
2021/09/15 07:43:21;;;;;;;11.82;9.63;;;19.70;96.90;;;;;;5038738;28;20111;-67
2021/09/15 07:45:47;;;;;;;13.18;10.07;;;19.70;96.90;;;;;;5028577;28;20498;-67
2021/09/15 07:48:12;;;;;;;11.50;9.73;;;19.80;96.70;;;;;;5039211;28;20033;-67
2021/09/15 07:50:38;;;;;;;11.32;9.77;;;19.90;96.80;;;;;;5039203;28;20104;-66
2021/09/15 07:53:03;;;;;;;14.95;10.45;;;19.90;96.80;;;;;;5044916;28;20029;-67
2021/09/15 07:55:28;;;;;;;12.32;9.52;;;20.00;96.60;;;;;;5034186;28;20119;-67
2021/09/15 07:57:54;;;;;;;14.85;10.93;;;20.10;96.80;;;;;;5038196;28;20035;-66
2021/09/15 08:00:21;;;;;;;11.82;9.95;;;20.10;96.70;;;;;;5044406;28;20029;-66
2021/09/15 08:02:47;;;;;;;12.35;9.82;;;20.20;96.60;;;;;;5040621;28;20030;-67
2021/09/15 08:05:13;;;;;;;17.92;10.23;;;20.20;96.50;;;;;;5030003;28;20029;-66
2021/09/15 08:07:38;;;;;;;12.90;8.95;;;20.30;96.40;;;;;;5034863;28;20018;-67
2021/09/15 08:10:05;;;;;;;13.63;9.60;;;20.30;96.30;;;;;;5042484;28;20020;-66
2021/09/15 08:12:30;;;;;;;13.45;10.00;;;20.40;96.30;;;;;;5030260;28;20037;-66
2021/09/15 08:14:56;;;;;;;11.73;10.02;;;20.40;96.10;;;;;;5037616;28;20029;-66
2021/09/15 08:17:21;;;;;;;11.57;8.75;;;20.50;96.10;;;;;;5040117;28;20389;-67
2021/09/15 08:19:47;;;;;;;12.20;9.98;;;20.50;96.10;;;;;;5035702;28;20021;-66
2021/09/15 08:22:12;;;;;;;12.55;9.25;;;20.60;96.00;;;;;;5041012;28;20126;-67
2021/09/15 08:24:38;;;;;;;12.13;9.18;;;20.60;95.90;;;;;;5034860;28;20017;-67
2021/09/15 08:27:03;;;;;;;13.00;9.02;;;20.70;95.90;;;;;;5032540;28;20021;-67
2021/09/15 08:29:29;;;;;;;10.15;8.90;;;20.70;95.90;;;;;;5031714;28;20025;-67
2021/09/15 08:31:54;;;;;;;10.50;8.88;;;20.80;95.80;;;;;;5027586;28;20116;-66
2021/09/15 08:34:20;;;;;;;13.45;8.70;;;20.80;95.90;;;;;;5030768;28;20061;-66
2021/09/15 08:36:45;;;;;;;14.70;9.23;;;20.90;95.90;;;;;;5029140;28;20026;-67
2021/09/15 08:39:11;;;;;;;12.23;9.10;;;20.90;95.80;;;;;;5035046;28;20034;-66
2021/09/15 08:41:36;;;;;;;11.95;8.90;;;21.00;95.60;;;;;;5032628;28;20462;-67
2021/09/15 08:44:03;;;;;;;11.93;8.38;;;21.10;95.80;;;;;;5035424;28;20026;-67
2021/09/15 08:46:31;;;;;;;11.75;8.43;;;21.10;95.70;;;;;;5036239;28;20060;-67
2021/09/15 08:49:00;;;;;;;12.27;8.18;;;21.20;95.50;;;;;;5039202;28;20025;-67
2021/09/15 08:51:26;;;;;;;13.80;8.50;;;21.30;95.50;;;;;;5030999;28;20036;-67
2021/09/15 08:53:53;;;;;;;10.57;7.50;;;21.40;95.50;;;;;;5037516;28;20040;-67
2021/09/15 08:56:19;;;;;;;11.48;8.55;;;21.50;95.40;;;;;;5036426;28;20116;-67
2021/09/15 08:58:44;;;;;;;13.23;8.13;;;21.60;95.30;;;;;;5030953;28;20033;-67
2021/09/15 09:01:18;;;;;;;11.73;8.00;;;21.60;95.20;;;;;;5033752;28;20029;-66
2021/09/15 09:03:45;;;;;;;11.13;8.32;;;21.70;95.40;;;;;;5029922;28;20440;-66
2021/09/15 09:06:13;;;;;;;11.55;8.43;;;21.80;95.20;;;;;;5031220;28;20034;-66
2021/09/15 09:08:43;;;;;;;11.63;8.00;;;21.90;95.00;;;;;;5031691;28;20088;-66
2021/09/15 09:11:10;;;;;;;9.55;7.45;;;22.10;94.90;;;;;;5029972;28;22157;-67
2021/09/15 09:13:47;;;;;;;9.40;7.38;;;22.20;94.80;;;;;;5031243;28;20662;-66
2021/09/15 09:16:12;;;;;;;10.88;7.38;;;22.30;94.90;;;;;;5030988;28;20048;-66
2021/09/15 09:18:59;;;;;;;10.82;7.40;;;22.40;94.40;;;;;;5026601;28;20022;-67
2021/09/15 09:21:27;;;;;;;9.82;7.57;;;22.50;94.50;;;;;;5030455;28;20112;-67
2021/09/15 09:23:56;;;;;;;8.65;7.25;;;22.70;94.30;;;;;;5029966;28;20075;-66
2021/09/15 09:26:22;;;;;;;10.15;7.72;;;22.80;94.30;;;;;;5030509;28;20044;-67
2021/09/15 09:28:47;;;;;;;8.80;7.22;;;22.90;94.20;;;;;;5028250;28;20022;-67
2021/09/15 09:31:13;;;;;;;8.75;7.13;;;23.00;93.80;;;;;;5027790;28;20116;-67
2021/09/15 09:33:39;;;;;;;9.50;7.65;;;23.10;93.70;;;;;;5024967;28;20124;-67
2021/09/15 09:36:09;;;;;;;9.95;7.63;;;23.20;93.80;;;;;;5031325;28;20116;-66
2021/09/15 09:38:37;;;;;;;10.18;7.47;;;23.30;93.80;;;;;;5038270;28;20528;-66
2021/09/15 09:41:11;;;;;;;8.23;7.30;;;23.40;93.60;;;;;;5025940;28;20049;-67
2021/09/15 09:43:45;;;;;;;7.97;7.18;;;23.50;93.60;;;;;;5011962;28;20061;-67
2021/09/15 09:46:12;;;;;;;9.52;6.60;;;23.60;93.30;;;;;;5019900;28;20041;-67
2021/09/15 09:48:40;;;;;;;11.38;7.22;;;23.60;93.30;;;;;;5030755;28;20088;-67
2021/09/15 09:51:25;;;;;;;11.25;6.47;;;23.70;93.10;;;;;;5030407;28;20021;-66
2021/09/15 09:54:05;;;;;;;7.93;6.45;;;23.80;92.90;;;;;;5025687;28;20037;-66
2021/09/15 09:56:31;;;;;;;9.38;7.22;;;23.90;92.80;;;;;;5019213;28;20049;-67
2021/09/15 09:58:58;;;;;;;9.85;7.25;;;23.90;93.00;;;;;;5022194;28;20022;-67
2021/09/15 10:01:23;;;;;;;7.38;6.57;;;24.00;92.70;;;;;;5021460;28;20572;-67
2021/09/15 10:03:49;;;;;;;8.63;6.57;;;24.10;92.80;;;;;;5028854;28;20025;-67
2021/09/15 10:06:15;;;;;;;9.27;6.93;;;24.10;92.50;;;;;;5027381;28;20021;-67
2021/09/15 10:08:42;;;;;;;9.98;6.57;;;24.20;92.10;;;;;;5030101;28;20030;-67
2021/09/15 10:11:08;;;;;;;10.30;6.57;;;24.30;92.10;;;;;;5029821;28;20509;-67
2021/09/15 10:13:34;;;;;;;7.55;6.78;;;24.40;91.80;;;;;;5033506;28;20033;-67
2021/09/15 10:16:03;;;;;;;10.95;6.80;;;24.50;91.90;;;;;;5034756;28;20435;-67
2021/09/15 10:18:29;;;;;;;8.63;6.50;;;24.60;91.70;;;;;;5029001;28;20036;-67
2021/09/15 10:20:57;;;;;;;8.02;6.13;;;24.60;91.60;;;;;;5028246;28;20022;-67
2021/09/15 10:23:37;;;;;;;9.10;6.63;;;24.70;91.40;;;;;;5029676;28;20026;-66
2021/09/15 10:26:28;;;;;;;12.35;6.50;;;24.80;91.50;;;;;;5024914;28;20034;-67
2021/09/15 10:29:13;;;;;;;7.32;5.90;;;24.90;91.60;;;;;;5022613;28;22526;-66
2021/09/15 10:31:59;;;;;;;9.73;5.78;;;25.00;91.40;;;;;;5023470;28;20057;-66
2021/09/15 10:34:40;;;;;;;11.00;5.85;;;25.10;91.10;;;;;;5023145;28;20068;-66
2021/09/15 10:37:11;;;;;;;11.38;6.10;;;25.10;90.60;;;;;;5022707;28;20561;-66
2021/09/15 10:39:54;;;;;;;7.45;6.00;;;25.10;90.50;;;;;;5021963;28;20072;-66
2021/09/15 10:42:48;;;;;;;6.20;5.50;;;25.10;90.80;;;;;;5022313;28;20539;-67
2021/09/15 10:45:22;;;;;;;8.88;6.28;;;25.20;90.70;;;;;;5020343;28;20072;-66
2021/09/15 10:47:58;;;;;;;8.20;6.60;;;25.20;90.90;;;;;;5020926;28;20075;-67
2021/09/15 10:50:30;;;;;;;8.27;6.38;;;25.30;90.80;;;;;;5019656;28;20033;-66
2021/09/15 10:53:29;;;;;;;5.82;5.22;;;25.30;90.50;;;;;;5022153;28;20053;-67
2021/09/15 10:55:57;;;;;;;8.90;6.18;;;25.30;90.70;;;;;;5020421;28;20052;-66
2021/09/15 10:58:25;;;;;;;7.32;6.13;;;25.30;90.40;;;;;;5011659;28;20061;-66
2021/09/15 11:01:03;;;;;;;11.43;5.93;;;25.40;90.10;;;;;;5023152;28;20125;-67
2021/09/15 11:03:53;;;;;;;7.63;5.95;;;25.40;89.60;;;;;;5019448;28;20044;-66
2021/09/15 11:06:23;;;;;;;7.63;5.80;;;25.40;89.60;;;;;;5024193;28;20033;-67
2021/09/15 11:08:50;;;;;;;10.65;5.93;;;25.50;89.40;;;;;;5026533;28;20049;-67
2021/09/15 11:11:21;;;;;;;8.70;5.40;;;25.50;89.60;;;;;;5033006;28;20109;-67
2021/09/15 11:13:53;;;;;;;8.25;5.63;;;25.50;89.20;;;;;;5032632;28;20099;-66
2021/09/15 11:16:36;;;;;;;6.80;6.07;;;25.50;89.50;;;;;;5031313;28;20477;-66
2021/09/15 11:19:08;;;;;;;9.75;5.85;;;25.50;88.90;;;;;;5028847;28;20112;-68
2021/09/15 11:21:44;;;;;;;8.88;6.03;;;25.60;88.50;;;;;;5032757;28;20030;-68
2021/09/15 11:24:13;;;;;;;7.35;6.47;;;25.60;88.80;;;;;;5031009;28;20049;-68
2021/09/15 11:26:48;;;;;;;8.73;6.07;;;25.60;89.30;;;;;;5019122;28;20069;-67
2021/09/15 11:29:15;;;;;;;7.75;5.68;;;25.70;88.90;;;;;;5019782;28;20033;-67
2021/09/15 11:31:42;;;;;;;7.85;5.72;;;25.70;89.10;;;;;;5022347;28;20035;-68
2021/09/15 11:34:10;;;;;;;8.95;6.20;;;25.70;88.90;;;;;;5019861;28;20128;-67
2021/09/15 11:36:36;;;;;;;10.63;6.57;;;25.70;88.70;;;;;;5018362;28;20053;-68
2021/09/15 11:39:04;;;;;;;6.95;5.80;;;25.70;88.00;;;;;;5018982;28;20065;-67
2021/09/15 11:41:29;;;;;;;7.65;6.03;;;25.80;88.60;;;;;;5021846;28;20034;-67
2021/09/15 11:43:55;;;;;;;11.10;6.43;;;25.70;88.80;;;;;;5020956;28;20440;-67
2021/09/15 11:46:30;;;;;;;7.50;5.55;;;25.80;88.70;;;;;;5039124;28;20022;-67
2021/09/15 11:48:56;;;;;;;8.45;6.20;;;25.80;88.60;;;;;;5043763;28;20052;-69
2021/09/15 11:51:23;;;;;;;8.63;6.30;;;25.80;88.70;;;;;;5041966;28;20115;-68
2021/09/15 11:53:54;;;;;;;8.88;6.63;;;25.80;89.10;;;;;;5032774;28;20120;-68
2021/09/15 11:56:24;;;;;;;7.53;6.10;;;25.80;89.00;;;;;;5027621;28;20050;-68
2021/09/15 11:58:50;;;;;;;8.02;6.30;;;25.80;89.20;;;;;;5030388;28;20028;-68
2021/09/15 12:01:17;;;;;;;6.57;5.88;;;25.90;88.90;;;;;;5031768;28;20474;-67
2021/09/15 12:03:43;;;;;;;7.45;5.82;;;25.80;89.30;;;;;;5027697;28;20472;-68
2021/09/15 12:06:09;;;;;;;6.75;5.97;;;25.90;89.00;;;;;;5047449;28;20031;-68
2021/09/15 12:08:35;;;;;;;8.18;5.85;;;25.90;88.90;;;;;;5031942;28;20029;-68
2021/09/15 12:11:01;;;;;;;10.00;6.25;;;25.90;88.40;;;;;;5047640;28;20116;-68
2021/09/15 12:13:32;;;;;;;7.28;5.90;;;25.90;88.40;;;;;;5035422;28;20038;-68
2021/09/15 12:15:57;;;;;;;10.90;5.88;;;25.90;88.50;;;;;;5031700;28;20428;-68
2021/09/15 12:18:44;;;;;;;10.35;5.78;;;25.90;88.70;;;;;;5027408;28;20026;-68
2021/09/15 12:21:18;;;;;;;7.13;6.18;;;25.90;89.10;;;;;;5031202;28;20029;-68
2021/09/15 12:23:44;;;;;;;6.65;5.93;;;25.90;88.40;;;;;;5031884;28;20033;-67
2021/09/15 12:26:11;;;;;;;10.00;6.07;;;26.00;88.50;;;;;;5030718;28;20041;-68
2021/09/15 12:28:37;;;;;;;6.63;5.80;;;26.00;89.30;;;;;;5031644;28;20037;-68
2021/09/15 12:31:06;;;;;;;8.52;6.38;;;26.00;89.60;;;;;;5047081;28;20108;-68
2021/09/15 12:33:39;;;;;;;8.40;6.00;;;26.00;89.70;;;;;;5017676;28;20032;-68
2021/09/15 12:36:14;;;;;;;7.30;6.25;;;26.10;90.00;;;;;;5017781;28;20600;-68
2021/09/15 12:38:57;;;;;;;7.82;6.68;;;26.10;90.00;;;;;;5016041;28;20057;-68
2021/09/15 12:41:27;;;;;;;8.05;6.20;;;26.10;89.40;;;;;;5018068;28;20118;-68